Blue Creek, Indiana
Current Conditions -  °F | °C
As of 7:55 AM on Wednesday 26 Nov 2014 (Local Time) from KI67 Reporting Station
Overcast Overcast  
Wind Chill: 25°   Ceiling: 2300
Heat Index: 30°   Visibility: 10mi
Dew Point: 28°   Wind: 5mph
Humidity: 93%   Direction: 40°NE
Pressure: 30.14"   Gusts: NA
Location:  39.2635°N, 85.1027°W
Report Text: KI67 261255Z AUTO 04004KT 10SM OVC023 M01/M02 A3014 RMK AO1
Loading
Personal Weather Stations






























Interactive Weather Map New forecast layout! Learn more

10-Day Weather Forecast

Advertisements
Track Severe Weather on mobile